sensor_id;sensor_type;location;lat;lon;timestamp;pressure;altitude;pressure_sealevel;temperature;humidity
41040;BME280;48586;50.122;18.972;2022-12-15T00:01:07;97237.06;;;-2.11;63.40
41040;BME280;48586;50.122;18.972;2022-12-15T00:03:24;97239.50;;;-2.10;63.84
41040;BME280;48586;50.122;18.972;2022-12-15T00:05:42;97238.31;;;-2.07;64.04
41040;BME280;48586;50.122;18.972;2022-12-15T00:08:05;97241.38;;;-2.03;64.03
41040;BME280;48586;50.122;18.972;2022-12-15T00:10:25;97245.41;;;-2.01;64.42
41040;BME280;48586;50.122;18.972;2022-12-15T00:12:43;97245.06;;;-1.98;64.76
41040;BME280;48586;50.122;18.972;2022-12-15T00:15:02;97240.47;;;-1.96;64.17
41040;BME280;48586;50.122;18.972;2022-12-15T00:17:20;97235.84;;;-1.94;64.63
41040;BME280;48586;50.122;18.972;2022-12-15T00:19:38;97241.72;;;-1.92;64.65
41040;BME280;48586;50.122;18.972;2022-12-15T00:21:55;97245.75;;;-1.89;64.41
41040;BME280;48586;50.122;18.972;2022-12-15T00:24:13;97251.78;;;-1.89;64.23
41040;BME280;48586;50.122;18.972;2022-12-15T00:26:34;97251.00;;;-1.89;64.08
41040;BME280;48586;50.122;18.972;2022-12-15T00:28:51;97252.59;;;-1.88;63.74
41040;BME280;48586;50.122;18.972;2022-12-15T00:31:08;97254.75;;;-1.92;63.59
41040;BME280;48586;50.122;18.972;2022-12-15T00:33:26;97258.72;;;-1.96;63.66
41040;BME280;48586;50.122;18.972;2022-12-15T00:35:43;97264.69;;;-2.02;63.33
41040;BME280;48586;50.122;18.972;2022-12-15T00:38:06;97264.13;;;-2.12;64.57
41040;BME280;48586;50.122;18.972;2022-12-15T00:40:24;97267.19;;;-2.09;64.83
41040;BME280;48586;50.122;18.972;2022-12-15T00:42:32;97267.84;;;-2.07;64.59
41040;BME280;48586;50.122;18.972;2022-12-15T00:44:37;97270.88;;;-2.03;64.82
41040;BME280;48586;50.122;18.972;2022-12-15T00:46:42;97276.09;;;-2.03;64.82
41040;BME280;48586;50.122;18.972;2022-12-15T00:48:56;97281.31;;;-2.03;64.49
41040;BME280;48586;50.122;18.972;2022-12-15T00:51:02;97283.31;;;-2.05;64.66
41040;BME280;48586;50.122;18.972;2022-12-15T00:53:04;97287.72;;;-2.06;64.99
41040;BME280;48586;50.122;18.972;2022-12-15T00:55:21;97291.13;;;-2.05;64.90
41040;BME280;48586;50.122;18.972;2022-12-15T00:57:41;97293.75;;;-2.05;65.05
41040;BME280;48586;50.122;18.972;2022-12-15T00:59:59;97294.09;;;-2.08;64.71
41040;BME280;48586;50.122;18.972;2022-12-15T01:02:16;97300.13;;;-2.08;64.76
41040;BME280;48586;50.122;18.972;2022-12-15T01:04:34;97300.84;;;-2.14;64.74
41040;BME280;48586;50.122;18.972;2022-12-15T01:06:53;97300.06;;;-2.14;65.29
41040;BME280;48586;50.122;18.972;2022-12-15T01:09:12;97293.03;;;-2.14;65.17
41040;BME280;48586;50.122;18.972;2022-12-15T01:11:29;97298.59;;;-2.17;65.20
41040;BME280;48586;50.122;18.972;2022-12-15T01:13:49;97301.06;;;-2.15;65.26
41040;BME280;48586;50.122;18.972;2022-12-15T01:16:09;97304.81;;;-2.18;65.28
41040;BME280;48586;50.122;18.972;2022-12-15T01:18:27;97315.72;;;-2.14;65.80
41040;BME280;48586;50.122;18.972;2022-12-15T01:20:53;97307.69;;;-2.13;65.58
41040;BME280;48586;50.122;18.972;2022-12-15T01:22:59;97312.72;;;-2.11;65.58
41040;BME280;48586;50.122;18.972;2022-12-15T01:25:04;97314.44;;;-2.18;64.92
41040;BME280;48586;50.122;18.972;2022-12-15T01:27:11;97313.19;;;-2.22;65.58
41040;BME280;48586;50.122;18.972;2022-12-15T01:29:19;97313.19;;;-2.22;65.38
41040;BME280;48586;50.122;18.972;2022-12-15T01:31:23;97313.53;;;-2.25;65.79
41040;BME280;48586;50.122;18.972;2022-12-15T01:33:29;97311.28;;;-2.28;65.86
41040;BME280;48586;50.122;18.972;2022-12-15T01:35:33;97312.91;;;-2.27;66.31
41040;BME280;48586;50.122;18.972;2022-12-15T01:37:38;97312.72;;;-2.26;66.61
41040;BME280;48586;50.122;18.972;2022-12-15T01:39:43;97320.28;;;-2.31;65.68
41040;BME280;48586;50.122;18.972;2022-12-15T01:42:01;97321.81;;;-2.37;66.28
41040;BME280;48586;50.122;18.972;2022-12-15T01:44:20;97325.31;;;-2.44;66.16
41040;BME280;48586;50.122;18.972;2022-12-15T01:46:27;97322.78;;;-2.52;66.56
41040;BME280;48586;50.122;18.972;2022-12-15T01:48:40;97324.59;;;-2.53;67.38
41040;BME280;48586;50.122;18.972;2022-12-15T01:50:56;97323.59;;;-2.52;67.03
41040;BME280;48586;50.122;18.972;2022-12-15T01:53:06;97333.69;;;-2.49;66.94
41040;BME280;48586;50.122;18.972;2022-12-15T01:55:14;97330.06;;;-2.48;67.10
41040;BME280;48586;50.122;18.972;2022-12-15T01:57:25;97333.94;;;-2.44;67.50
41040;BME280;48586;50.122;18.972;2022-12-15T01:59:42;97329.00;;;-2.39;67.44
41040;BME280;48586;50.122;18.972;2022-12-15T02:01:52;97320.44;;;-2.33;67.17
41040;BME280;48586;50.122;18.972;2022-12-15T02:03:56;97327.56;;;-2.26;67.01
41040;BME280;48586;50.122;18.972;2022-12-15T02:06:03;97325.59;;;-2.24;66.41
41040;BME280;48586;50.122;18.972;2022-12-15T02:08:06;97326.38;;;-2.24;66.70
41040;BME280;48586;50.122;18.972;2022-12-15T02:10:13;97328.84;;;-2.22;66.53
41040;BME280;48586;50.122;18.972;2022-12-15T02:12:28;97337.28;;;-2.20;66.50
41040;BME280;48586;50.122;18.972;2022-12-15T02:14:52;97330.91;;;-2.18;66.62
41040;BME280;48586;50.122;18.972;2022-12-15T02:17:16;97336.47;;;-2.21;66.39
41040;BME280;48586;50.122;18.972;2022-12-15T02:20:07;97343.56;;;-2.30;66.60
41040;BME280;48586;50.122;18.972;2022-12-15T02:22:33;97346.19;;;-2.30;66.75
41040;BME280;48586;50.122;18.972;2022-12-15T02:25:21;97347.19;;;-2.31;66.39
41040;BME280;48586;50.122;18.972;2022-12-15T02:27:55;97348.16;;;-2.32;66.65
41040;BME280;48586;50.122;18.972;2022-12-15T02:30:20;97354.34;;;-2.33;66.98
41040;BME280;48586;50.122;18.972;2022-12-15T02:32:37;97356.88;;;-2.39;66.86
41040;BME280;48586;50.122;18.972;2022-12-15T02:34:53;97359.31;;;-2.38;67.55
41040;BME280;48586;50.122;18.972;2022-12-15T02:37:08;97370.00;;;-2.33;67.26
41040;BME280;48586;50.122;18.972;2022-12-15T02:39:17;97368.03;;;-2.31;66.95
41040;BME280;48586;50.122;18.972;2022-12-15T02:41:36;97374.78;;;-2.36;66.68
41040;BME280;48586;50.122;18.972;2022-12-15T02:43:43;97375.47;;;-2.42;66.71
41040;BME280;48586;50.122;18.972;2022-12-15T02:45:59;97378.97;;;-2.50;67.10
41040;BME280;48586;50.122;18.972;2022-12-15T02:48:24;97381.13;;;-2.53;67.79
41040;BME280;48586;50.122;18.972;2022-12-15T02:50:56;97384.91;;;-2.56;67.53
41040;BME280;48586;50.122;18.972;2022-12-15T02:53:23;97390.91;;;-2.56;67.83
41040;BME280;48586;50.122;18.972;2022-12-15T02:55:49;97383.91;;;-2.55;67.36
41040;BME280;48586;50.122;18.972;2022-12-15T02:58:03;97390.09;;;-2.56;67.42
41040;BME280;48586;50.122;18.972;2022-12-15T03:00:11;97394.53;;;-2.57;67.59
41040;BME280;48586;50.122;18.972;2022-12-15T03:02:23;97387.31;;;-2.55;67.80
41040;BME280;48586;50.122;18.972;2022-12-15T03:04:29;97388.59;;;-2.50;67.62
41040;BME280;48586;50.122;18.972;2022-12-15T03:06:34;97390.75;;;-2.54;67.60
41040;BME280;48586;50.122;18.972;2022-12-15T03:08:39;97395.44;;;-2.49;67.99
41040;BME280;48586;50.122;18.972;2022-12-15T03:10:43;97399.13;;;-2.44;68.43
41040;BME280;48586;50.122;18.972;2022-12-15T03:12:48;97400.22;;;-2.38;67.84
41040;BME280;48586;50.122;18.972;2022-12-15T03:14:54;97399.34;;;-2.31;68.20
41040;BME280;48586;50.122;18.972;2022-12-15T03:16:58;97404.66;;;-2.24;67.79
41040;BME280;48586;50.122;18.972;2022-12-15T03:19:07;97401.06;;;-2.23;67.08
41040;BME280;48586;50.122;18.972;2022-12-15T03:21:11;97404.84;;;-2.25;66.76
41040;BME280;48586;50.122;18.972;2022-12-15T03:23:15;97410.25;;;-2.27;67.39
41040;BME280;48586;50.122;18.972;2022-12-15T03:25:20;97404.22;;;-2.27;67.25
41040;BME280;48586;50.122;18.972;2022-12-15T03:27:24;97408.50;;;-2.35;67.21
41040;BME280;48586;50.122;18.972;2022-12-15T03:29:29;97409.22;;;-2.41;67.49
41040;BME280;48586;50.122;18.972;2022-12-15T03:31:35;97418.81;;;-2.41;67.91
41040;BME280;48586;50.122;18.972;2022-12-15T03:33:39;97421.63;;;-2.43;67.70
41040;BME280;48586;50.122;18.972;2022-12-15T03:35:46;97429.78;;;-2.46;67.65
41040;BME280;48586;50.122;18.972;2022-12-15T03:37:51;97426.91;;;-2.51;67.72
41040;BME280;48586;50.122;18.972;2022-12-15T03:39:55;97429.22;;;-2.56;68.00
41040;BME280;48586;50.122;18.972;2022-12-15T03:42:00;97439.19;;;-2.60;68.28
41040;BME280;48586;50.122;18.972;2022-12-15T03:44:05;97447.00;;;-2.60;68.47
41040;BME280;48586;50.122;18.972;2022-12-15T03:46:09;97448.19;;;-2.62;68.25
41040;BME280;48586;50.122;18.972;2022-12-15T03:48:13;97444.25;;;-2.58;69.01
41040;BME280;48586;50.122;18.972;2022-12-15T03:50:20;97442.25;;;-2.56;68.22
41040;BME280;48586;50.122;18.972;2022-12-15T03:52:30;97445.66;;;-2.56;68.33
41040;BME280;48586;50.122;18.972;2022-12-15T03:54:34;97453.34;;;-2.54;68.46
41040;BME280;48586;50.122;18.972;2022-12-15T03:56:40;97457.19;;;-2.50;68.28
41040;BME280;48586;50.122;18.972;2022-12-15T03:58:44;97460.44;;;-2.48;68.13
41040;BME280;48586;50.122;18.972;2022-12-15T04:00:48;97454.09;;;-2.45;68.66
41040;BME280;48586;50.122;18.972;2022-12-15T04:02:53;97459.75;;;-2.42;68.40
41040;BME280;48586;50.122;18.972;2022-12-15T04:04:57;97460.84;;;-2.36;68.54
41040;BME280;48586;50.122;18.972;2022-12-15T04:07:01;97461.28;;;-2.33;68.05
41040;BME280;48586;50.122;18.972;2022-12-15T04:09:08;97469.44;;;-2.27;68.20
41040;BME280;48586;50.122;18.972;2022-12-15T04:11:12;97466.00;;;-2.28;67.91
41040;BME280;48586;50.122;18.972;2022-12-15T04:13:16;97471.22;;;-2.28;67.66
41040;BME280;48586;50.122;18.972;2022-12-15T04:15:21;97469.59;;;-2.29;67.76
41040;BME280;48586;50.122;18.972;2022-12-15T04:17:25;97475.44;;;-2.27;67.73
41040;BME280;48586;50.122;18.972;2022-12-15T04:19:29;97474.47;;;-2.26;67.79
41040;BME280;48586;50.122;18.972;2022-12-15T04:21:47;97476.25;;;-2.26;67.55
41040;BME280;48586;50.122;18.972;2022-12-15T04:23:51;97480.47;;;-2.25;68.11
41040;BME280;48586;50.122;18.972;2022-12-15T04:26:10;97492.72;;;-2.26;67.55
41040;BME280;48586;50.122;18.972;2022-12-15T04:28:28;97488.31;;;-2.25;67.79
41040;BME280;48586;50.122;18.972;2022-12-15T04:30:48;97491.56;;;-2.23;67.88
41040;BME280;48586;50.122;18.972;2022-12-15T04:33:06;97489.41;;;-2.20;68.21
41040;BME280;48586;50.122;18.972;2022-12-15T04:35:24;97482.84;;;-2.16;67.56
41040;BME280;48586;50.122;18.972;2022-12-15T04:37:40;97492.66;;;-2.18;67.41
41040;BME280;48586;50.122;18.972;2022-12-15T04:39:58;97485.16;;;-2.21;67.33
41040;BME280;48586;50.122;18.972;2022-12-15T04:42:19;97495.13;;;-2.24;67.37
41040;BME280;48586;50.122;18.972;2022-12-15T04:44:36;97501.34;;;-2.25;67.74
41040;BME280;48586;50.122;18.972;2022-12-15T04:46:54;97498.47;;;-2.31;67.72
41040;BME280;48586;50.122;18.972;2022-12-15T04:49:11;97504.00;;;-2.34;68.02
41040;BME280;48586;50.122;18.972;2022-12-15T04:51:27;97512.84;;;-2.35;67.73
41040;BME280;48586;50.122;18.972;2022-12-15T04:53:44;97510.75;;;-2.39;67.81
41040;BME280;48586;50.122;18.972;2022-12-15T04:56:03;97512.69;;;-2.41;68.24
41040;BME280;48586;50.122;18.972;2022-12-15T04:58:22;97507.34;;;-2.40;68.19
41040;BME280;48586;50.122;18.972;2022-12-15T05:00:39;97512.84;;;-2.35;68.49
41040;BME280;48586;50.122;18.972;2022-12-15T05:02:56;97515.09;;;-2.32;67.73
41040;BME280;48586;50.122;18.972;2022-12-15T05:05:13;97532.91;;;-2.35;67.75
41040;BME280;48586;50.122;18.972;2022-12-15T05:07:29;97534.50;;;-2.34;67.89
41040;BME280;48586;50.122;18.972;2022-12-15T05:09:46;97540.91;;;-2.37;68.24
41040;BME280;48586;50.122;18.972;2022-12-15T05:12:04;97542.84;;;-2.39;68.07
41040;BME280;48586;50.122;18.972;2022-12-15T05:14:23;97546.47;;;-2.40;68.26
41040;BME280;48586;50.122;18.972;2022-12-15T05:16:40;97561.81;;;-2.45;68.08
41040;BME280;48586;50.122;18.972;2022-12-15T05:18:57;97562.97;;;-2.47;68.39
41040;BME280;48586;50.122;18.972;2022-12-15T05:21:13;97561.00;;;-2.45;68.65
41040;BME280;48586;50.122;18.972;2022-12-15T05:23:30;97574.03;;;-2.45;68.30
41040;BME280;48586;50.122;18.972;2022-12-15T05:25:47;97577.47;;;-2.45;68.43
41040;BME280;48586;50.122;18.972;2022-12-15T05:28:05;97568.00;;;-2.46;68.66
41040;BME280;48586;50.122;18.972;2022-12-15T05:30:25;97576.28;;;-2.42;68.41
41040;BME280;48586;50.122;18.972;2022-12-15T05:32:42;97579.69;;;-2.42;68.03
41040;BME280;48586;50.122;18.972;2022-12-15T05:34:46;97579.69;;;-2.42;68.25
41040;BME280;48586;50.122;18.972;2022-12-15T05:36:51;97574.50;;;-2.42;68.20
41040;BME280;48586;50.122;18.972;2022-12-15T05:38:56;97571.25;;;-2.44;68.01
41040;BME280;48586;50.122;18.972;2022-12-15T05:41:00;97575.28;;;-2.41;68.03
41040;BME280;48586;50.122;18.972;2022-12-15T05:43:04;97585.56;;;-2.40;68.45
41040;BME280;48586;50.122;18.972;2022-12-15T05:45:09;97582.16;;;-2.40;67.90
41040;BME280;48586;50.122;18.972;2022-12-15T05:47:16;97587.84;;;-2.37;68.02
41040;BME280;48586;50.122;18.972;2022-12-15T05:49:21;97598.09;;;-2.35;68.05
41040;BME280;48586;50.122;18.972;2022-12-15T05:51:25;97592.69;;;-2.34;68.05
41040;BME280;48586;50.122;18.972;2022-12-15T05:53:30;97601.66;;;-2.28;68.15
41040;BME280;48586;50.122;18.972;2022-12-15T05:55:36;97605.88;;;-2.27;67.71
41040;BME280;48586;50.122;18.972;2022-12-15T05:57:40;97610.44;;;-2.29;67.31
41040;BME280;48586;50.122;18.972;2022-12-15T05:59:44;97619.06;;;-2.28;67.98
41040;BME280;48586;50.122;18.972;2022-12-15T06:01:49;97619.72;;;-2.26;67.37
41040;BME280;48586;50.122;18.972;2022-12-15T06:03:56;97619.72;;;-2.26;67.59
41040;BME280;48586;50.122;18.972;2022-12-15T06:06:00;97632.78;;;-2.26;67.17
41040;BME280;48586;50.122;18.972;2022-12-15T06:08:08;97640.94;;;-2.30;66.89
41040;BME280;48586;50.122;18.972;2022-12-15T06:10:12;97638.50;;;-2.31;66.94
41040;BME280;48586;50.122;18.972;2022-12-15T06:12:16;97645.53;;;-2.32;66.92
41040;BME280;48586;50.122;18.972;2022-12-15T06:14:21;97649.09;;;-2.33;66.84
41040;BME280;48586;50.122;18.972;2022-12-15T06:16:26;97660.19;;;-2.31;67.00
41040;BME280;48586;50.122;18.972;2022-12-15T06:18:33;97662.59;;;-2.29;66.65
41040;BME280;48586;50.122;18.972;2022-12-15T06:20:42;97652.03;;;-2.27;66.16
41040;BME280;48586;50.122;18.972;2022-12-15T06:22:46;97656.44;;;-2.28;65.77
41040;BME280;48586;50.122;18.972;2022-12-15T06:24:50;97672.22;;;-2.30;65.04
41040;BME280;48586;50.122;18.972;2022-12-15T06:26:55;97670.94;;;-2.34;64.89
41040;BME280;48586;50.122;18.972;2022-12-15T06:29:00;97669.97;;;-2.33;65.21
41040;BME280;48586;50.122;18.972;2022-12-15T06:31:08;97668.34;;;-2.34;64.95
41040;BME280;48586;50.122;18.972;2022-12-15T06:33:14;97666.53;;;-2.33;65.23
41040;BME280;48586;50.122;18.972;2022-12-15T06:35:18;97670.44;;;-2.29;64.92
41040;BME280;48586;50.122;18.972;2022-12-15T06:37:25;97684.28;;;-2.28;65.35
41040;BME280;48586;50.122;18.972;2022-12-15T06:39:29;97689.16;;;-2.25;65.07
41040;BME280;48586;50.122;18.972;2022-12-15T06:41:34;97698.00;;;-2.26;64.94
41040;BME280;48586;50.122;18.972;2022-12-15T06:43:39;97699.59;;;-2.25;64.96
41040;BME280;48586;50.122;18.972;2022-12-15T06:45:47;97692.44;;;-2.23;65.17
41040;BME280;48586;50.122;18.972;2022-12-15T06:47:51;97702.50;;;-2.20;65.02
41040;BME280;48586;50.122;18.972;2022-12-15T06:49:55;97700.56;;;-2.18;64.35
41040;BME280;48586;50.122;18.972;2022-12-15T06:52:03;97697.94;;;-2.18;64.23
41040;BME280;48586;50.122;18.972;2022-12-15T06:54:11;97714.59;;;-2.19;64.17
41040;BME280;48586;50.122;18.972;2022-12-15T06:56:20;97725.19;;;-2.21;64.09
41040;BME280;48586;50.122;18.972;2022-12-15T06:58:27;97723.56;;;-2.22;63.94
41040;BME280;48586;50.122;18.972;2022-12-15T07:00:33;97730.91;;;-2.25;64.41
41040;BME280;48586;50.122;18.972;2022-12-15T07:02:41;97744.63;;;-2.23;64.24
41040;BME280;48586;50.122;18.972;2022-12-15T07:04:46;97734.50;;;-2.26;62.95
41040;BME280;48586;50.122;18.972;2022-12-15T07:06:51;97737.94;;;-2.26;63.48
41040;BME280;48586;50.122;18.972;2022-12-15T07:08:56;97739.41;;;-2.23;63.79
41040;BME280;48586;50.122;18.972;2022-12-15T07:11:05;97745.75;;;-2.26;64.07
41040;BME280;48586;50.122;18.972;2022-12-15T07:13:12;97751.94;;;-2.19;64.74
41040;BME280;48586;50.122;18.972;2022-12-15T07:15:18;97770.50;;;-2.14;64.49
41040;BME280;48586;50.122;18.972;2022-12-15T07:17:23;97766.09;;;-2.13;63.80
41040;BME280;48586;50.122;18.972;2022-12-15T07:19:28;97774.09;;;-2.15;63.60
41040;BME280;48586;50.122;18.972;2022-12-15T07:21:33;97777.66;;;-2.16;64.02
41040;BME280;48586;50.122;18.972;2022-12-15T07:23:39;97792.03;;;-2.20;63.72
41040;BME280;48586;50.122;18.972;2022-12-15T07:25:43;97798.91;;;-2.19;63.96
41040;BME280;48586;50.122;18.972;2022-12-15T07:27:51;97797.25;;;-2.20;63.75
41040;BME280;48586;50.122;18.972;2022-12-15T07:29:56;97804.94;;;-2.18;63.99
41040;BME280;48586;50.122;18.972;2022-12-15T07:32:02;97800.34;;;-2.16;63.91
41040;BME280;48586;50.122;18.972;2022-12-15T07:34:06;97791.19;;;-2.12;64.29
41040;BME280;48586;50.122;18.972;2022-12-15T07:36:12;97791.50;;;-2.07;64.39
41040;BME280;48586;50.122;18.972;2022-12-15T07:38:17;97793.28;;;-1.99;64.49
41040;BME280;48586;50.122;18.972;2022-12-15T07:40:21;97797.34;;;-1.97;63.61
41040;BME280;48586;50.122;18.972;2022-12-15T07:42:28;97808.41;;;-1.95;63.37
41040;BME280;48586;50.122;18.972;2022-12-15T07:44:35;97804.19;;;-1.96;63.80
41040;BME280;48586;50.122;18.972;2022-12-15T07:46:39;97804.38;;;-1.97;63.35
41040;BME280;48586;50.122;18.972;2022-12-15T07:48:47;97810.41;;;-1.97;63.24
41040;BME280;48586;50.122;18.972;2022-12-15T07:50:51;97821.81;;;-1.98;63.81
41040;BME280;48586;50.122;18.972;2022-12-15T07:52:57;97828.66;;;-1.97;64.17
41040;BME280;48586;50.122;18.972;2022-12-15T07:55:03;97814.44;;;-1.94;64.13
41040;BME280;48586;50.122;18.972;2022-12-15T07:57:07;97820.81;;;-1.89;63.50
41040;BME280;48586;50.122;18.972;2022-12-15T07:59:11;97813.94;;;-1.90;62.61
41040;BME280;48586;50.122;18.972;2022-12-15T08:01:19;97814.59;;;-1.88;64.10
41040;BME280;48586;50.122;18.972;2022-12-15T08:03:24;97820.13;;;-1.83;63.80
41040;BME280;48586;50.122;18.972;2022-12-15T08:05:28;97823.84;;;-1.77;63.74
41040;BME280;48586;50.122;18.972;2022-12-15T08:07:33;97822.03;;;-1.76;63.39
41040;BME280;48586;50.122;18.972;2022-12-15T08:09:38;97835.09;;;-1.76;62.90
41040;BME280;48586;50.122;18.972;2022-12-15T08:11:42;97833.47;;;-1.77;62.70
41040;BME280;48586;50.122;18.972;2022-12-15T08:13:48;97849.94;;;-1.77;63.11
41040;BME280;48586;50.122;18.972;2022-12-15T08:15:53;97855.16;;;-1.77;62.96
41040;BME280;48586;50.122;18.972;2022-12-15T08:17:59;97867.25;;;-1.76;63.09
41040;BME280;48586;50.122;18.972;2022-12-15T08:20:06;97870.03;;;-1.77;62.65
41040;BME280;48586;50.122;18.972;2022-12-15T08:22:11;97869.03;;;-1.76;63.12
41040;BME280;48586;50.122;18.972;2022-12-15T08:24:16;97872.94;;;-1.72;63.32
41040;BME280;48586;50.122;18.972;2022-12-15T08:26:22;97874.09;;;-1.75;62.34
41040;BME280;48586;50.122;18.972;2022-12-15T08:28:26;97873.94;;;-1.73;62.95
41040;BME280;48586;50.122;18.972;2022-12-15T08:30:32;97877.03;;;-1.70;63.70
41040;BME280;48586;50.122;18.972;2022-12-15T08:32:37;97885.34;;;-1.66;63.21
41040;BME280;48586;50.122;18.972;2022-12-15T08:34:44;97888.75;;;-1.66;63.00
41040;BME280;48586;50.122;18.972;2022-12-15T08:36:49;97891.19;;;-1.64;62.61
41040;BME280;48586;50.122;18.972;2022-12-15T08:38:55;97884.81;;;-1.62;62.84
41040;BME280;48586;50.122;18.972;2022-12-15T08:41:05;97892.47;;;-1.60;62.89
41040;BME280;48586;50.122;18.972;2022-12-15T08:43:10;97893.66;;;-1.63;62.31
41040;BME280;48586;50.122;18.972;2022-12-15T08:45:15;97890.38;;;-1.65;62.08
41040;BME280;48586;50.122;18.972;2022-12-15T08:47:19;97898.06;;;-1.63;62.37
41040;BME280;48586;50.122;18.972;2022-12-15T08:49:25;97897.22;;;-1.64;62.47
41040;BME280;48586;50.122;18.972;2022-12-15T08:51:33;97892.47;;;-1.60;63.11
41040;BME280;48586;50.122;18.972;2022-12-15T08:53:37;97889.34;;;-1.56;63.28
41040;BME280;48586;50.122;18.972;2022-12-15T08:55:41;97893.44;;;-1.53;62.75
41040;BME280;48586;50.122;18.972;2022-12-15T08:57:46;97888.84;;;-1.51;62.01
41040;BME280;48586;50.122;18.972;2022-12-15T08:59:51;97895.88;;;-1.51;62.21
41040;BME280;48586;50.122;18.972;2022-12-15T09:01:55;97902.25;;;-1.54;61.71
41040;BME280;48586;50.122;18.972;2022-12-15T09:04:02;97896.25;;;-1.63;61.13
41040;BME280;48586;50.122;18.972;2022-12-15T09:06:12;97892.84;;;-1.63;62.64
41040;BME280;48586;50.122;18.972;2022-12-15T09:08:21;97899.00;;;-1.56;62.64
41040;BME280;48586;50.122;18.972;2022-12-15T09:10:27;97896.69;;;-1.51;62.67
41040;BME280;48586;50.122;18.972;2022-12-15T09:12:31;97889.81;;;-1.44;63.10
41040;BME280;48586;50.122;18.972;2022-12-15T09:14:36;97897.78;;;-1.37;63.04
41040;BME280;48586;50.122;18.972;2022-12-15T09:16:41;97890.88;;;-1.30;63.44
41040;BME280;48586;50.122;18.972;2022-12-15T09:18:47;97898.84;;;-1.23;62.76
41040;BME280;48586;50.122;18.972;2022-12-15T09:20:53;97900.44;;;-1.14;62.37
41040;BME280;48586;50.122;18.972;2022-12-15T09:22:58;97908.38;;;-1.08;62.46
41040;BME280;48586;50.122;18.972;2022-12-15T09:25:06;97911.31;;;-1.02;61.72
41040;BME280;48586;50.122;18.972;2022-12-15T09:27:11;97906.53;;;-0.99;61.77
41040;BME280;48586;50.122;18.972;2022-12-15T09:29:16;97900.50;;;-0.99;60.46
41040;BME280;48586;50.122;18.972;2022-12-15T09:31:23;97904.09;;;-1.00;60.31
41040;BME280;48586;50.122;18.972;2022-12-15T09:33:30;97906.53;;;-0.99;60.46
41040;BME280;48586;50.122;18.972;2022-12-15T09:35:38;97908.00;;;-0.96;61.53
41040;BME280;48586;50.122;18.972;2022-12-15T09:37:43;97907.13;;;-0.89;61.24
41040;BME280;48586;50.122;18.972;2022-12-15T09:39:47;97915.63;;;-0.87;61.10
41040;BME280;48586;50.122;18.972;2022-12-15T09:41:58;97923.31;;;-0.85;59.54
41040;BME280;48586;50.122;18.972;2022-12-15T09:44:09;97916.78;;;-0.89;61.07
41040;BME280;48586;50.122;18.972;2022-12-15T09:46:25;97916.94;;;-0.91;60.37
41040;BME280;48586;50.122;18.972;2022-12-15T09:48:43;97926.72;;;-0.85;61.22
41040;BME280;48586;50.122;18.972;2022-12-15T09:50:52;97930.63;;;-0.81;61.21
41040;BME280;48586;50.122;18.972;2022-12-15T09:52:58;97926.84;;;-0.78;61.05
41040;BME280;48586;50.122;18.972;2022-12-15T09:55:18;97935.38;;;-0.84;59.68
41040;BME280;48586;50.122;18.972;2022-12-15T09:57:34;97931.34;;;-0.95;60.00
41040;BME280;48586;50.122;18.972;2022-12-15T09:59:54;97937.91;;;-0.99;60.65
41040;BME280;48586;50.122;18.972;2022-12-15T10:02:33;97923.22;;;-1.00;61.70
41040;BME280;48586;50.122;18.972;2022-12-15T10:05:09;97914.69;;;-0.94;61.54
41040;BME280;48586;50.122;18.972;2022-12-15T10:07:28;97906.16;;;-0.88;61.60
41040;BME280;48586;50.122;18.972;2022-12-15T10:09:40;97914.94;;;-0.81;61.25
41040;BME280;48586;50.122;18.972;2022-12-15T10:11:50;97921.06;;;-0.73;61.26
41040;BME280;48586;50.122;18.972;2022-12-15T10:14:12;97916.78;;;-0.66;61.17
41040;BME280;48586;50.122;18.972;2022-12-15T10:16:31;97927.53;;;-0.61;60.45
41040;BME280;48586;50.122;18.972;2022-12-15T10:18:59;97938.19;;;-0.63;60.79
41040;BME280;48586;50.122;18.972;2022-12-15T10:21:11;97935.56;;;-0.63;60.99
41040;BME280;48586;50.122;18.972;2022-12-15T10:23:17;97932.28;;;-0.65;60.15
41040;BME280;48586;50.122;18.972;2022-12-15T10:25:24;97930.50;;;-0.64;60.82
41040;BME280;48586;50.122;18.972;2022-12-15T10:27:51;97926.09;;;-0.64;60.31
41040;BME280;48586;50.122;18.972;2022-12-15T10:30:11;97932.13;;;-0.63;60.66
41040;BME280;48586;50.122;18.972;2022-12-15T10:32:20;97923.13;;;-0.61;61.26
41040;BME280;48586;50.122;18.972;2022-12-15T10:34:35;97921.31;;;-0.60;60.09
41040;BME280;48586;50.122;18.972;2022-12-15T10:36:49;97913.19;;;-0.65;60.38
41040;BME280;48586;50.122;18.972;2022-12-15T10:38:54;97909.56;;;-0.64;61.20
41040;BME280;48586;50.122;18.972;2022-12-15T10:41:02;97918.69;;;-0.60;61.20
41040;BME280;48586;50.122;18.972;2022-12-15T10:43:14;97922.16;;;-0.60;60.13
41040;BME280;48586;50.122;18.972;2022-12-15T10:45:36;97919.34;;;-0.58;60.53
41040;BME280;48586;50.122;18.972;2022-12-15T10:47:56;97917.00;;;-0.53;60.86
41040;BME280;48586;50.122;18.972;2022-12-15T10:50:17;97912.25;;;-0.49;60.55
41040;BME280;48586;50.122;18.972;2022-12-15T10:52:31;97914.69;;;-0.48;59.66
41040;BME280;48586;50.122;18.972;2022-12-15T10:54:44;97922.91;;;-0.51;59.46
41040;BME280;48586;50.122;18.972;2022-12-15T10:56:52;97918.16;;;-0.56;59.34
41040;BME280;48586;50.122;18.972;2022-12-15T10:59:00;97925.84;;;-0.54;60.28
41040;BME280;48586;50.122;18.972;2022-12-15T11:01:15;97916.81;;;-0.51;60.50
41040;BME280;48586;50.122;18.972;2022-12-15T11:03:23;97913.53;;;-0.45;60.83
41040;BME280;48586;50.122;18.972;2022-12-15T11:05:29;97920.03;;;-0.41;60.05
41040;BME280;48586;50.122;18.972;2022-12-15T11:07:38;97933.22;;;-0.35;60.47
41040;BME280;48586;50.122;18.972;2022-12-15T11:09:47;97932.06;;;-0.32;60.29
41040;BME280;48586;50.122;18.972;2022-12-15T11:11:52;97941.38;;;-0.30;59.48
41040;BME280;48586;50.122;18.972;2022-12-15T11:14:13;97939.19;;;-0.26;60.42
41040;BME280;48586;50.122;18.972;2022-12-15T11:16:22;97939.66;;;-0.22;59.93
41040;BME280;48586;50.122;18.972;2022-12-15T11:18:34;97939.50;;;-0.21;60.69
41040;BME280;48586;50.122;18.972;2022-12-15T11:20:46;97935.69;;;-0.18;59.65
41040;BME280;48586;50.122;18.972;2022-12-15T11:23:01;97947.78;;;-0.17;59.33